Time;durP1;ratioP1;P1;durP2;ratioP2;P2;SDS_P1;SDS_P2;PMS_P1;PMS_P2;Temp;Humidity;BMP_temperature;BMP_pressure;BME280_temperature;BME280_humidity;BME280_pressure;Samples;Min_cycle;Max_cycle;Signal;HPM_P1;HPM_P2
2022/06/18 00:00:13;;;;;;;56.15;9.80;;;;;;;;;;5054620;28;20072;-61
2022/06/18 00:02:41;;;;;;;55.55;8.98;;;;;;;;;;5054427;28;20037;-61
2022/06/18 00:05:09;;;;;;;45.00;9.05;;;;;;;;;;5037638;28;20028;-61
2022/06/18 00:07:39;;;;;;;50.80;9.85;;;;;;;;;;5054740;28;20055;-61
2022/06/18 00:10:07;;;;;;;45.53;9.05;;;;;;;;;;5020545;28;20372;-61
2022/06/18 00:15:26;;;;;;;53.80;10.45;;;;;;;;;;5054995;28;20047;-61
2022/06/18 00:17:54;;;;;;;47.83;10.00;;;;;;;;;;5054215;28;20033;-61
2022/06/18 00:20:22;;;;;;;51.83;9.90;;;;;;;;;;5055286;28;20021;-60
2022/06/18 00:22:50;;;;;;;66.65;11.05;;;;;;;;;;5054619;28;20029;-61
2022/06/18 00:25:43;;;;;;;46.17;9.75;;;;;;;;;;5054614;28;20036;-61
2022/06/18 00:28:15;;;;;;;65.57;10.85;;;;;;;;;;5050470;28;20049;-61
2022/06/18 00:30:42;;;;;;;55.30;11.10;;;;;;;;;;5055048;28;20108;-60
2022/06/18 00:33:10;;;;;;;57.00;11.45;;;;;;;;;;5053762;28;20622;-60
2022/06/18 00:35:37;;;;;;;49.10;10.45;;;;;;;;;;5054729;28;20179;-60
2022/06/18 00:38:05;;;;;;;63.67;11.38;;;;;;;;;;5054889;28;20043;-61
2022/06/18 00:40:37;;;;;;;61.15;11.40;;;;;;;;;;5054219;28;20049;-61
2022/06/18 00:43:06;;;;;;;58.75;10.68;;;;;;;;;;5054833;28;20032;-61
2022/06/18 00:45:33;;;;;;;57.35;11.73;;;;;;;;;;5053621;28;20064;-61
2022/06/18 00:48:06;;;;;;;69.47;12.07;;;;;;;;;;5054225;28;20017;-61
2022/06/18 00:50:54;;;;;;;57.17;11.68;;;;;;;;;;5054119;28;20044;-61
2022/06/18 00:53:33;;;;;;;62.30;11.10;;;;;;;;;;5036270;28;20059;-61
2022/06/18 00:56:06;;;;;;;68.10;12.27;;;;;;;;;;5054014;28;20116;-61
2022/06/18 00:58:43;;;;;;;63.63;12.25;;;;;;;;;;5054130;28;20041;-61
2022/06/18 01:01:16;;;;;;;51.03;10.55;;;;;;;;;;5054099;28;20561;-61
2022/06/18 01:03:45;;;;;;;54.65;11.95;;;;;;;;;;5053461;28;20052;-61
2022/06/18 01:06:15;;;;;;;57.53;12.32;;;;;;;;;;5053391;28;20086;-61
2022/06/18 01:08:42;;;;;;;47.80;10.95;;;;;;;;;;5054106;28;20039;-61
2022/06/18 01:11:20;;;;;;;47.40;10.55;;;;;;;;;;5054169;28;20051;-61
2022/06/18 01:13:48;;;;;;;66.35;11.70;;;;;;;;;;5053514;28;20078;-61
2022/06/18 01:16:18;;;;;;;50.95;10.38;;;;;;;;;;5053943;28;20029;-61
2022/06/18 01:18:46;;;;;;;61.30;12.40;;;;;;;;;;5053427;28;20064;-61
2022/06/18 01:21:22;;;;;;;52.75;9.88;;;;;;;;;;5053930;28;20032;-61
2022/06/18 01:23:49;;;;;;;56.22;11.98;;;;;;;;;;5053833;28;20095;-61
2022/06/18 01:26:17;;;;;;;50.28;10.07;;;;;;;;;;5035345;28;20025;-61
2022/06/18 01:28:44;;;;;;;52.97;10.88;;;;;;;;;;5053471;28;20779;-61
2022/06/18 01:31:11;;;;;;;55.45;11.75;;;;;;;;;;5052867;28;20032;-61
2022/06/18 01:33:38;;;;;;;42.38;9.80;;;;;;;;;;5053725;28;20055;-61
2022/06/18 01:36:08;;;;;;;42.88;10.50;;;;;;;;;;5053482;28;20029;-61
2022/06/18 01:38:36;;;;;;;43.58;9.52;;;;;;;;;;5052894;28;20037;-61
2022/06/18 01:43:59;;;;;;;40.33;9.35;;;;;;;;;;5053443;28;20095;-61
2022/06/18 01:46:27;;;;;;;40.45;9.05;;;;;;;;;;5052948;28;20056;-61
2022/06/18 01:48:54;;;;;;;50.40;10.55;;;;;;;;;;5053288;28;20437;-61
2022/06/18 01:51:23;;;;;;;42.40;9.23;;;;;;;;;;5052556;28;20037;-61
2022/06/18 01:53:54;;;;;;;42.88;9.77;;;;;;;;;;5053539;28;20037;-61
2022/06/18 01:56:24;;;;;;;31.58;7.80;;;;;;;;;;5051475;28;20055;-61
2022/06/18 01:59:11;;;;;;;37.13;9.75;;;;;;;;;;5053198;28;20112;-61
2022/06/18 02:01:39;;;;;;;39.78;8.40;;;;;;;;;;5053237;28;20040;-60
2022/06/18 02:04:07;;;;;;;37.58;8.13;;;;;;;;;;5052242;28;20135;-60
2022/06/18 02:06:35;;;;;;;37.60;8.63;;;;;;;;;;5052788;28;20036;-60
2022/06/18 02:09:03;;;;;;;37.63;10.13;;;;;;;;;;5052496;28;20028;-61
2022/06/18 02:11:30;;;;;;;34.75;8.50;;;;;;;;;;5052897;28;20029;-61
2022/06/18 02:14:03;;;;;;;34.17;8.10;;;;;;;;;;5053251;28;20029;-61
2022/06/18 02:16:31;;;;;;;32.30;7.80;;;;;;;;;;5052365;28;20036;-61
2022/06/18 02:19:01;;;;;;;29.83;7.85;;;;;;;;;;5052717;28;20031;-60
2022/06/18 02:21:28;;;;;;;31.48;7.90;;;;;;;;;;5052094;28;20040;-60
2022/06/18 02:23:55;;;;;;;36.17;7.85;;;;;;;;;;5052401;28;20025;-61
2022/06/18 02:26:23;;;;;;;34.13;7.53;;;;;;;;;;5052272;28;20029;-61
2022/06/18 02:28:50;;;;;;;38.20;7.93;;;;;;;;;;5052261;28;20040;-61
2022/06/18 02:31:26;;;;;;;31.83;7.85;;;;;;;;;;5052556;28;20398;-61
2022/06/18 02:34:03;;;;;;;27.95;7.65;;;;;;;;;;5052534;28;20095;-60
2022/06/18 02:36:31;;;;;;;27.95;7.47;;;;;;;;;;5052139;28;20464;-60
2022/06/18 02:39:21;;;;;;;26.67;6.97;;;;;;;;;;5051587;28;20043;-61
2022/06/18 02:41:48;;;;;;;29.20;7.60;;;;;;;;;;5044965;28;20041;-61
2022/06/18 02:44:16;;;;;;;25.67;7.20;;;;;;;;;;5053410;28;20025;-61
2022/06/18 02:46:43;;;;;;;31.42;7.22;;;;;;;;;;5053587;28;20052;-61
2022/06/18 02:49:11;;;;;;;22.88;7.28;;;;;;;;;;5052852;28;20033;-60
2022/06/18 02:51:38;;;;;;;25.45;6.55;;;;;;;;;;5050857;28;20037;-60
2022/06/18 02:54:06;;;;;;;25.92;7.05;;;;;;;;;;5052437;28;20028;-60
2022/06/18 02:56:33;;;;;;;32.25;6.75;;;;;;;;;;5051530;28;20025;-61
2022/06/18 02:59:00;;;;;;;26.83;7.20;;;;;;;;;;5051498;28;20037;-60
2022/06/18 03:01:28;;;;;;;29.83;7.03;;;;;;;;;;5052202;28;20116;-61
2022/06/18 03:03:57;;;;;;;22.38;5.97;;;;;;;;;;5051769;28;20040;-61
2022/06/18 03:06:27;;;;;;;19.75;6.20;;;;;;;;;;5052017;28;20032;-61
2022/06/18 03:08:55;;;;;;;21.13;5.75;;;;;;;;;;5051779;28;20090;-61
2022/06/18 03:14:09;;;;;;;22.50;5.63;;;;;;;;;;5052491;28;20120;-61
2022/06/18 03:16:36;;;;;;;21.05;5.53;;;;;;;;;;5051431;28;20484;-61
2022/06/18 03:19:04;;;;;;;24.23;6.60;;;;;;;;;;5052140;28;20488;-60
2022/06/18 03:21:34;;;;;;;20.27;6.20;;;;;;;;;;5051040;28;20264;-61
2022/06/18 03:24:02;;;;;;;22.65;5.93;;;;;;;;;;5052204;28;20033;-60
2022/06/18 03:26:30;;;;;;;18.40;5.72;;;;;;;;;;5051528;28;20021;-61
2022/06/18 03:28:57;;;;;;;14.80;5.78;;;;;;;;;;5052134;28;20037;-61
2022/06/18 03:31:24;;;;;;;19.75;5.95;;;;;;;;;;5050975;28;20021;-61
2022/06/18 03:33:51;;;;;;;19.02;5.40;;;;;;;;;;5051066;28;20049;-61
2022/06/18 03:36:19;;;;;;;18.30;5.70;;;;;;;;;;5051967;28;20021;-60
2022/06/18 03:38:46;;;;;;;18.27;5.68;;;;;;;;;;5053558;28;20033;-60
2022/06/18 03:41:14;;;;;;;18.88;5.70;;;;;;;;;;5018521;28;20122;-60
2022/06/18 03:43:41;;;;;;;19.85;5.32;;;;;;;;;;5051940;28;20360;-61
2022/06/18 03:46:09;;;;;;;16.73;5.28;;;;;;;;;;5033427;28;20025;-61
2022/06/18 03:48:45;;;;;;;16.35;5.18;;;;;;;;;;5051268;28;20033;-60
2022/06/18 03:51:13;;;;;;;18.52;5.47;;;;;;;;;;5051312;28;20029;-61
2022/06/18 03:53:40;;;;;;;17.08;5.25;;;;;;;;;;5051135;28;20107;-61
2022/06/18 03:56:08;;;;;;;20.83;5.55;;;;;;;;;;5033480;28;20033;-61
2022/06/18 03:58:35;;;;;;;17.23;4.90;;;;;;;;;;5051441;28;20029;-61
2022/06/18 04:01:02;;;;;;;19.10;5.07;;;;;;;;;;5051271;28;20491;-60
2022/06/18 04:03:28;;;;;;;19.25;4.65;;;;;;;;;;5036319;28;20449;-60
2022/06/18 04:05:56;;;;;;;15.23;4.97;;;;;;;;;;5054662;28;20146;-60
2022/06/18 04:08:23;;;;;;;16.13;5.38;;;;;;;;;;5037040;28;20036;-61
2022/06/18 04:10:50;;;;;;;17.15;5.28;;;;;;;;;;5054817;28;20036;-61
2022/06/18 04:13:17;;;;;;;12.90;4.43;;;;;;;;;;5054646;28;20101;-61
2022/06/18 04:15:45;;;;;;;14.00;5.07;;;;;;;;;;5054487;28;20459;-60
2022/06/18 04:18:16;;;;;;;14.60;4.95;;;;;;;;;;5055222;28;20123;-61
2022/06/18 04:20:44;;;;;;;17.13;4.63;;;;;;;;;;5055052;28;20455;-60
2022/06/18 04:23:14;;;;;;;15.90;4.85;;;;;;;;;;5054880;28;20029;-60
2022/06/18 04:25:42;;;;;;;15.98;4.45;;;;;;;;;;5053996;28;20037;-61
2022/06/18 04:28:10;;;;;;;18.55;4.78;;;;;;;;;;5054929;28;20411;-61
2022/06/18 04:30:37;;;;;;;18.00;5.18;;;;;;;;;;5054313;28;20035;-60
2022/06/18 04:33:04;;;;;;;14.60;4.65;;;;;;;;;;5054328;28;20048;-61
2022/06/18 04:35:31;;;;;;;11.95;4.43;;;;;;;;;;5054176;28;20063;-61
2022/06/18 04:37:58;;;;;;;13.48;4.40;;;;;;;;;;5054154;28;20029;-61
2022/06/18 04:40:31;;;;;;;14.80;4.43;;;;;;;;;;5054396;28;20116;-60
2022/06/18 04:43:06;;;;;;;17.25;4.68;;;;;;;;;;5053904;28;20128;-61
2022/06/18 04:45:34;;;;;;;9.48;4.05;;;;;;;;;;5054179;28;20055;-61
2022/06/18 04:48:01;;;;;;;11.63;4.68;;;;;;;;;;5054478;28;20152;-61
2022/06/18 04:50:31;;;;;;;10.18;3.83;;;;;;;;;;5054564;28;20502;-61
2022/06/18 04:52:58;;;;;;;8.93;3.50;;;;;;;;;;5054359;28;20617;-61
2022/06/18 04:55:25;;;;;;;16.08;4.57;;;;;;;;;;5053808;28;20039;-60
2022/06/18 04:57:52;;;;;;;10.60;3.80;;;;;;;;;;5053457;28;20116;-60
2022/06/18 05:00:19;;;;;;;13.65;4.07;;;;;;;;;;5054564;28;20392;-61
2022/06/18 05:02:47;;;;;;;13.40;3.90;;;;;;;;;;5054251;28;20036;-60
2022/06/18 05:05:16;;;;;;;10.63;3.72;;;;;;;;;;5053446;28;20107;-61
2022/06/18 05:07:43;;;;;;;12.07;3.60;;;;;;;;;;5054367;28;20024;-61
2022/06/18 05:10:10;;;;;;;10.85;3.45;;;;;;;;;;5053504;28;20040;-61
2022/06/18 05:12:37;;;;;;;9.02;3.88;;;;;;;;;;5054209;28;20017;-61
2022/06/18 05:15:05;;;;;;;11.98;3.80;;;;;;;;;;5035471;28;20099;-61
2022/06/18 05:17:33;;;;;;;10.88;3.40;;;;;;;;;;5035677;28;20399;-60
2022/06/18 05:20:00;;;;;;;11.73;3.65;;;;;;;;;;5054093;28;20100;-61
2022/06/18 05:22:30;;;;;;;9.65;3.63;;;;;;;;;;5035466;28;20029;-60
2022/06/18 05:24:57;;;;;;;9.43;3.13;;;;;;;;;;5053596;28;20033;-61
2022/06/18 05:27:29;;;;;;;8.13;3.13;;;;;;;;;;5053519;28;20048;-61
2022/06/18 05:29:56;;;;;;;10.50;3.60;;;;;;;;;;5053381;28;20032;-60
2022/06/18 05:32:23;;;;;;;10.10;3.30;;;;;;;;;;5053393;28;20028;-61
2022/06/18 05:34:50;;;;;;;10.52;3.28;;;;;;;;;;5052905;28;20104;-61
2022/06/18 05:37:22;;;;;;;11.45;3.30;;;;;;;;;;5053572;28;20162;-61
2022/06/18 05:39:49;;;;;;;7.63;3.03;;;;;;;;;;5052807;28;20029;-60
2022/06/18 05:42:16;;;;;;;14.25;3.60;;;;;;;;;;5053108;28;20020;-61
2022/06/18 05:44:43;;;;;;;9.93;3.00;;;;;;;;;;5053474;28;20074;-60
2022/06/18 05:47:20;;;;;;;10.32;3.22;;;;;;;;;;5053585;28;20595;-62
2022/06/18 05:49:47;;;;;;;9.25;3.40;;;;;;;;;;5052564;28;20104;-60
2022/06/18 05:52:13;;;;;;;10.93;3.13;;;;;;;;;;5053525;28;20098;-60
2022/06/18 05:54:40;;;;;;;10.50;3.70;;;;;;;;;;5053236;28;20153;-61
2022/06/18 05:57:08;;;;;;;7.68;2.58;;;;;;;;;;5052780;28;20028;-60
2022/06/18 05:59:35;;;;;;;7.15;2.83;;;;;;;;;;5053188;28;20159;-60
2022/06/18 06:02:02;;;;;;;10.90;3.13;;;;;;;;;;5053159;28;20443;-60
2022/06/18 06:04:30;;;;;;;8.55;2.88;;;;;;;;;;5052501;28;20021;-60
2022/06/18 06:06:57;;;;;;;10.50;3.17;;;;;;;;;;5051945;28;20027;-60
2022/06/18 06:12:10;;;;;;;7.90;2.83;;;;;;;;;;5053295;28;20075;-60
2022/06/18 06:14:38;;;;;;;8.90;3.08;;;;;;;;;;5052408;28;20052;-61
2022/06/18 06:17:05;;;;;;;8.35;2.72;;;;;;;;;;5052294;28;20463;-61
2022/06/18 06:19:32;;;;;;;7.85;2.30;;;;;;;;;;5052078;28;20044;-60
2022/06/18 06:21:59;;;;;;;8.77;2.75;;;;;;;;;;5052830;28;20021;-61
2022/06/18 06:24:26;;;;;;;9.05;2.95;;;;;;;;;;5052303;28;20063;-61
2022/06/18 06:26:53;;;;;;;7.35;2.53;;;;;;;;;;5052040;28;20026;-60
2022/06/18 06:29:20;;;;;;;7.30;2.50;;;;;;;;;;5052730;28;20021;-61
2022/06/18 06:31:47;;;;;;;6.57;2.42;;;;;;;;;;5210402;22;20051;-51
2022/06/18 06:34:14;;;;;;;6.78;2.38;;;;;;;;;;5063353;28;20381;-53
2022/06/18 06:36:41;;;;;;;7.10;3.08;;;;;;;;;;5072101;28;20020;-52
2022/06/18 06:39:08;;;;;;;8.10;2.58;;;;;;;;;;5072055;28;20028;-49
2022/06/18 06:41:35;;;;;;;5.72;2.35;;;;;;;;;;5071986;28;20024;-55
2022/06/18 06:44:02;;;;;;;6.95;2.95;;;;;;;;;;5058839;28;20127;-50
2022/06/18 06:46:29;;;;;;;7.40;2.97;;;;;;;;;;5048775;28;20021;-57
2022/06/18 06:48:56;;;;;;;7.18;2.63;;;;;;;;;;5048366;28;20029;-50
2022/06/18 06:51:25;;;;;;;6.20;2.30;;;;;;;;;;5050886;28;20450;-51
2022/06/18 06:53:52;;;;;;;6.05;2.50;;;;;;;;;;5052139;28;20032;-51
2022/06/18 06:59:06;;;;;;;7.95;2.50;;;;;;;;;;5051977;28;20059;-52
2022/06/18 07:01:36;;;;;;;6.68;2.20;;;;;;;;;;5052607;28;20033;-53
2022/06/18 07:04:05;;;;;;;6.22;2.40;;;;;;;;;;5050357;28;20158;-54
2022/06/18 07:06:33;;;;;;;6.60;2.42;;;;;;;;;;5048510;28;20095;-51
2022/06/18 07:09:00;;;;;;;5.05;2.10;;;;;;;;;;5051681;28;20025;-51
2022/06/18 07:11:27;;;;;;;6.55;2.38;;;;;;;;;;5051187;28;20072;-49
2022/06/18 07:13:54;;;;;;;7.47;2.17;;;;;;;;;;5051777;28;20029;-52
2022/06/18 07:16:21;;;;;;;6.25;2.20;;;;;;;;;;5050597;28;20099;-54
2022/06/18 07:18:49;;;;;;;6.45;2.42;;;;;;;;;;5051824;28;20021;-49
2022/06/18 07:21:19;;;;;;;4.82;2.10;;;;;;;;;;5051194;28;20036;-55
2022/06/18 07:23:46;;;;;;;8.18;2.65;;;;;;;;;;5050962;28;20029;-49
2022/06/18 07:26:15;;;;;;;6.07;2.25;;;;;;;;;;5051020;28;20032;-50
2022/06/18 07:28:43;;;;;;;7.40;2.40;;;;;;;;;;5051140;28;20104;-55
2022/06/18 07:31:19;;;;;;;5.85;2.20;;;;;;;;;;5051369;28;20087;-50
2022/06/18 07:33:46;;;;;;;5.78;2.00;;;;;;;;;;5051602;28;20021;-52
2022/06/18 07:36:13;;;;;;;4.72;2.25;;;;;;;;;;5050657;28;20036;-50
2022/06/18 07:38:40;;;;;;;6.72;2.15;;;;;;;;;;5055078;28;20029;-49
2022/06/18 07:41:07;;;;;;;4.07;1.92;;;;;;;;;;5055055;28;20033;-53
2022/06/18 07:43:41;;;;;;;4.50;2.08;;;;;;;;;;5055615;28;20110;-49
2022/06/18 07:46:10;;;;;;;7.68;2.38;;;;;;;;;;5055031;28;20032;-49
2022/06/18 07:48:41;;;;;;;3.70;2.10;;;;;;;;;;5054992;28;20123;-51
2022/06/18 07:51:09;;;;;;;6.63;2.25;;;;;;;;;;5054684;28;20032;-49
2022/06/18 07:53:36;;;;;;;5.10;1.92;;;;;;;;;;5055558;28;20474;-53
2022/06/18 07:56:04;;;;;;;6.28;2.15;;;;;;;;;;5054895;28;20048;-48
2022/06/18 07:58:31;;;;;;;4.95;1.98;;;;;;;;;;5054970;28;20036;-51
2022/06/18 08:00:58;;;;;;;3.92;1.85;;;;;;;;;;5054621;28;20028;-52
2022/06/18 08:03:25;;;;;;;6.53;1.67;;;;;;;;;;5055254;28;20045;-54
2022/06/18 08:05:53;;;;;;;3.60;2.00;;;;;;;;;;5054714;28;20028;-49
2022/06/18 08:08:19;;;;;;;3.20;1.83;;;;;;;;;;5054219;28;20036;-56
2022/06/18 08:10:47;;;;;;;5.50;1.83;;;;;;;;;;5054674;28;20087;-52
2022/06/18 08:13:14;;;;;;;4.20;1.60;;;;;;;;;;5054490;28;20483;-51
2022/06/18 08:15:41;;;;;;;4.55;1.85;;;;;;;;;;5054885;28;20482;-53
2022/06/18 08:18:08;;;;;;;4.50;1.80;;;;;;;;;;5054295;28;20086;-51
2022/06/18 08:20:36;;;;;;;4.47;2.08;;;;;;;;;;5055555;28;20112;-49
2022/06/18 08:23:04;;;;;;;4.15;1.83;;;;;;;;;;5054044;28;20056;-50
2022/06/18 08:25:32;;;;;;;4.68;1.88;;;;;;;;;;5054931;28;20027;-50
2022/06/18 08:28:02;;;;;;;3.65;1.40;;;;;;;;;;5054579;28;20025;-51
2022/06/18 08:30:29;;;;;;;3.58;1.48;;;;;;;;;;5054260;28;20468;-50
2022/06/18 08:32:56;;;;;;;3.80;1.55;;;;;;;;;;5054445;28;20124;-51
2022/06/18 08:35:23;;;;;;;3.38;1.42;;;;;;;;;;5053709;28;20060;-49
2022/06/18 08:37:50;;;;;;;4.30;1.40;;;;;;;;;;5054608;28;20068;-51
2022/06/18 08:40:45;;;;;;;3.47;1.50;;;;;;;;;;5054111;28;20090;-52
2022/06/18 08:43:18;;;;;;;4.03;1.70;;;;;;;;;;5053727;28;20024;-53
2022/06/18 08:45:50;;;;;;;3.42;1.75;;;;;;;;;;5054311;28;20021;-50
2022/06/18 08:48:20;;;;;;;3.23;1.63;;;;;;;;;;5053613;28;20649;-52
2022/06/18 08:50:49;;;;;;;3.97;1.50;;;;;;;;;;5053268;28;20780;-51
2022/06/18 08:53:25;;;;;;;3.22;1.50;;;;;;;;;;5053710;28;20021;-49
2022/06/18 08:56:00;;;;;;;3.38;1.40;;;;;;;;;;5054222;28;20029;-51
2022/06/18 08:58:28;;;;;;;3.78;1.30;;;;;;;;;;5054173;28;20045;-48
2022/06/18 09:01:13;;;;;;;3.70;1.58;;;;;;;;;;5053590;28;20025;-49
2022/06/18 09:03:43;;;;;;;2.88;1.40;;;;;;;;;;5053719;28;20078;-48
2022/06/18 09:06:10;;;;;;;2.38;1.23;;;;;;;;;;5053379;28;20033;-50
2022/06/18 09:08:43;;;;;;;2.42;1.20;;;;;;;;;;5053783;28;20036;-49
2022/06/18 09:11:09;;;;;;;;;;;;;;;;;;5052945;28;20052;-51
2022/06/18 09:13:40;;;;;;;3.60;1.50;;;;;;;;;;5034310;28;19905;-49
2022/06/18 09:16:09;;;;;;;2.75;1.50;;;;;;;;;;5053820;28;20021;-53
2022/06/18 09:18:39;;;;;;;2.58;1.20;;;;;;;;;;5052979;28;20025;-51
2022/06/18 09:21:11;;;;;;;4.10;1.42;;;;;;;;;;5035884;28;20052;-52
2022/06/18 09:23:40;;;;;;;2.53;1.23;;;;;;;;;;5053473;28;20115;-52
2022/06/18 09:26:14;;;;;;;2.75;1.30;;;;;;;;;;5053212;28;20029;-52
2022/06/18 09:28:44;;;;;;;3.03;1.40;;;;;;;;;;5053408;28;20025;-52
2022/06/18 09:31:14;;;;;;;2.00;1.08;;;;;;;;;;5053031;28;20390;-48
2022/06/18 09:33:44;;;;;;;3.17;1.45;;;;;;;;;;5052897;28;20041;-53
2022/06/18 09:36:18;;;;;;;1.95;1.05;;;;;;;;;;5053057;28;20070;-52
2022/06/18 09:39:06;;;;;;;4.28;1.33;;;;;;;;;;5053073;28;20059;-51
2022/06/18 09:41:39;;;;;;;2.15;1.10;;;;;;;;;;5053288;28;20487;-52
2022/06/18 09:44:19;;;;;;;2.28;1.30;;;;;;;;;;5052315;28;20483;-52
2022/06/18 09:47:12;;;;;;;4.00;1.27;;;;;;;;;;5049012;28;20095;-52
2022/06/18 09:49:39;;;;;;;;;;;;;;;;;;5045718;28;20045;-58
2022/06/18 09:52:13;;;;;;;3.33;1.30;;;;;;;;;;5033259;28;20298;-50
2022/06/18 09:54:49;;;;;;;3.00;1.42;;;;;;;;;;5052427;28;20052;-50
2022/06/18 09:57:18;;;;;;;3.85;1.33;;;;;;;;;;5053203;28;20029;-53
2022/06/18 09:59:54;;;;;;;1.67;1.20;;;;;;;;;;5052208;28;20052;-55
2022/06/18 10:02:28;;;;;;;1.83;0.93;;;;;;;;;;5052893;28;20047;-52
2022/06/18 10:07:43;;;;;;;1.23;1.00;;;;;;;;;;5051281;28;20087;-50
2022/06/18 10:10:14;;;;;;;1.77;0.93;;;;;;;;;;5051561;28;20024;-48
2022/06/18 10:12:44;;;;;;;3.45;1.13;;;;;;;;;;5052070;28;20083;-51
2022/06/18 10:15:13;;;;;;;2.17;1.08;;;;;;;;;;5053141;28;20059;-49
2022/06/18 10:17:40;;;;;;;2.42;1.10;;;;;;;;;;5053007;28;20430;-49
2022/06/18 10:20:25;;;;;;;1.67;1.10;;;;;;;;;;5052462;28;20490;-51
2022/06/18 10:22:52;;;;;;;2.95;1.17;;;;;;;;;;5052894;28;20039;-51
2022/06/18 10:25:45;;;;;;;2.42;1.10;;;;;;;;;;5052240;28;20040;-50
2022/06/18 10:28:15;;;;;;;2.83;1.20;;;;;;;;;;5046587;28;20044;-49
2022/06/18 10:30:57;;;;;;;3.42;1.02;;;;;;;;;;5052028;28;20029;-51
2022/06/18 10:33:31;;;;;;;5.28;1.50;;;;;;;;;;5052436;28;20124;-49
2022/06/18 10:36:01;;;;;;;4.30;1.17;;;;;;;;;;5051764;28;20394;-50
2022/06/18 10:38:38;;;;;;;2.30;1.10;;;;;;;;;;5052924;28;20525;-52
2022/06/18 10:41:11;;;;;;;3.00;1.00;;;;;;;;;;5051931;28;20025;-50
2022/06/18 10:43:56;;;;;;;2.92;1.30;;;;;;;;;;5052430;28;20028;-50
2022/06/18 10:46:24;;;;;;;3.50;1.15;;;;;;;;;;5051825;28;20028;-53
2022/06/18 10:48:55;;;;;;;4.93;1.10;;;;;;;;;;5052656;28;20025;-51
2022/06/18 10:51:24;;;;;;;5.78;1.40;;;;;;;;;;5051516;28;20043;-54
2022/06/18 10:53:52;;;;;;;3.83;1.20;;;;;;;;;;5052248;28;20545;-52
2022/06/18 10:56:21;;;;;;;4.03;0.93;;;;;;;;;;5051822;28;20086;-51
2022/06/18 10:58:59;;;;;;;2.67;1.00;;;;;;;;;;5052387;28;20399;-48
2022/06/18 11:01:26;;;;;;;1.95;1.00;;;;;;;;;;5052061;28;20056;-52
2022/06/18 11:03:57;;;;;;;3.88;1.00;;;;;;;;;;5033606;28;20028;-52
2022/06/18 11:06:25;;;;;;;4.47;1.30;;;;;;;;;;5051997;28;20054;-50
2022/06/18 11:08:53;;;;;;;4.28;1.35;;;;;;;;;;5052004;28;20029;-50
2022/06/18 11:11:22;;;;;;;4.45;1.23;;;;;;;;;;5050782;28;20112;-51
2022/06/18 11:13:50;;;;;;;2.28;1.10;;;;;;;;;;5051673;28;20036;-49
2022/06/18 11:16:28;;;;;;;6.03;1.13;;;;;;;;;;5051960;28;20036;-51
2022/06/18 11:18:57;;;;;;;2.17;0.95;;;;;;;;;;5051478;28;20052;-52
2022/06/18 11:21:31;;;;;;;2.60;1.00;;;;;;;;;;5052046;28;20036;-52
2022/06/18 11:24:16;;;;;;;3.83;1.00;;;;;;;;;;5051652;28;20127;-51
2022/06/18 11:26:43;;;;;;;4.65;1.02;;;;;;;;;;5052000;28;20044;-48
2022/06/18 11:29:14;;;;;;;2.30;1.13;;;;;;;;;;5051934;28;20047;-52
2022/06/18 11:31:50;;;;;;;3.00;1.10;;;;;;;;;;5034109;28;20037;-51
2022/06/18 11:34:25;;;;;;;3.42;1.05;;;;;;;;;;5051281;28;20037;-48
2022/06/18 11:36:54;;;;;;;3.15;0.90;;;;;;;;;;5051945;28;20387;-54
2022/06/18 11:39:24;;;;;;;2.95;0.85;;;;;;;;;;5052044;28;20147;-51
2022/06/18 11:41:52;;;;;;;3.30;1.80;;;;;;;;;;5052979;28;20021;-55
2022/06/18 11:44:32;;;;;;;4.68;0.90;;;;;;;;;;5052354;28;20043;-50
2022/06/18 11:47:04;;;;;;;3.25;1.15;;;;;;;;;;5051663;28;20342;-49
2022/06/18 11:49:31;;;;;;;;;;;;;;;;;;5052004;28;20506;-52
2022/06/18 11:52:09;;;;;;;4.60;1.00;;;;;;;;;;5051651;28;20333;-51
2022/06/18 11:54:39;;;;;;;5.88;1.25;;;;;;;;;;5051589;28;20040;-52
2022/06/18 11:57:06;;;;;;;3.17;1.08;;;;;;;;;;5051378;28;20032;-51
2022/06/18 11:59:40;;;;;;;3.10;0.80;;;;;;;;;;5051727;28;20029;-49
2022/06/18 12:02:10;;;;;;;4.30;1.23;;;;;;;;;;5050220;28;20041;-51
2022/06/18 12:04:44;;;;;;;5.80;1.20;;;;;;;;;;5051436;28;20036;-53
2022/06/18 12:07:17;;;;;;;4.20;1.00;;;;;;;;;;5051300;28;20068;-49
2022/06/18 12:09:44;;;;;;;2.40;1.00;;;;;;;;;;5051442;28;20432;-48
2022/06/18 12:12:18;;;;;;;2.72;0.88;;;;;;;;;;5050681;28;20029;-48
2022/06/18 12:14:59;;;;;;;2.38;0.90;;;;;;;;;;5051592;28;20051;-53
2022/06/18 12:17:35;;;;;;;3.00;1.00;;;;;;;;;;5051237;28;20517;-51
2022/06/18 12:20:17;;;;;;;5.60;1.00;;;;;;;;;;5051096;28;20037;-51
2022/06/18 12:22:49;;;;;;;3.55;1.00;;;;;;;;;;5051228;28;20076;-50
2022/06/18 12:25:22;;;;;;;3.37;1.10;;;;;;;;;;5054737;28;20444;-54
2022/06/18 12:27:52;;;;;;;4.32;1.10;;;;;;;;;;5054662;28;20414;-49
2022/06/18 12:30:32;;;;;;;1.55;0.95;;;;;;;;;;5054456;28;20455;-51
2022/06/18 12:33:17;;;;;;;4.50;1.25;;;;;;;;;;5054344;28;20096;-47
2022/06/18 12:35:52;;;;;;;5.50;1.25;;;;;;;;;;5049864;28;20486;-50
2022/06/18 12:38:25;;;;;;;3.67;1.50;;;;;;;;;;5052265;28;20037;-51
2022/06/18 12:40:52;;;;;;;6.60;1.75;;;;;;;;;;5052083;28;20498;-56
2022/06/18 12:43:27;;;;;;;6.20;1.40;;;;;;;;;;5053334;28;20033;-52
2022/06/18 12:46:00;;;;;;;8.18;1.20;;;;;;;;;;5054274;28;20037;-49
2022/06/18 12:48:26;;;;;;;7.70;1.60;;;;;;;;;;5053888;28;20021;-50
2022/06/18 12:51:05;;;;;;;8.43;1.60;;;;;;;;;;5054314;28;20051;-52
2022/06/18 12:53:50;;;;;;;6.45;1.80;;;;;;;;;;5054285;28;20049;-51
2022/06/18 12:56:23;;;;;;;9.25;1.63;;;;;;;;;;5053954;28;20032;-50
2022/06/18 12:59:03;;;;;;;6.88;1.60;;;;;;;;;;5053587;28;20479;-51
2022/06/18 13:01:32;;;;;;;5.40;1.30;;;;;;;;;;5054048;28;20025;-51
2022/06/18 13:04:08;;;;;;;4.88;1.48;;;;;;;;;;5052971;28;20025;-51
2022/06/18 13:06:59;;;;;;;8.20;1.50;;;;;;;;;;5053941;28;20040;-51
2022/06/18 13:09:32;;;;;;;13.85;1.70;;;;;;;;;;5053548;28;20032;-50
2022/06/18 13:12:06;;;;;;;8.65;1.85;;;;;;;;;;5052353;28;20056;-50
2022/06/18 13:14:48;;;;;;;3.20;1.30;;;;;;;;;;5053726;28;20033;-51
2022/06/18 13:17:35;;;;;;;11.13;2.13;;;;;;;;;;5053064;28;20037;-51
2022/06/18 13:20:22;;;;;;;7.07;1.50;;;;;;;;;;5053239;28;20091;-52
2022/06/18 13:22:49;;;;;;;4.50;1.40;;;;;;;;;;5053859;28;20036;-51
2022/06/18 13:28:12;;;;;;;4.32;1.40;;;;;;;;;;5053524;28;20063;-53
2022/06/18 13:30:58;;;;;;;8.38;1.65;;;;;;;;;;5053646;28;20037;-48
2022/06/18 13:33:43;;;;;;;5.82;1.40;;;;;;;;;;5053977;28;20055;-49
2022/06/18 13:36:16;;;;;;;6.47;1.60;;;;;;;;;;5052369;28;20028;-50
2022/06/18 13:38:51;;;;;;;7.70;1.48;;;;;;;;;;5053937;28;20494;-51
2022/06/18 13:41:18;;;;;;;4.32;1.40;;;;;;;;;;5052657;28;20044;-53
2022/06/18 13:43:47;;;;;;;4.80;1.85;;;;;;;;;;5053652;28;20518;-50
2022/06/18 13:46:19;;;;;;;7.25;1.88;;;;;;;;;;5052827;28;20155;-49
2022/06/18 13:49:02;;;;;;;7.10;1.73;;;;;;;;;;5035731;28;20118;-49
2022/06/18 13:51:30;;;;;;;6.18;1.67;;;;;;;;;;5053172;28;20142;-50
2022/06/18 13:54:08;;;;;;;5.85;1.60;;;;;;;;;;5052968;28;20395;-49
2022/06/18 13:56:37;;;;;;;4.28;1.40;;;;;;;;;;5052887;28;20031;-48
2022/06/18 13:59:04;;;;;;;5.57;1.50;;;;;;;;;;5053504;28;20033;-51
2022/06/18 14:01:33;;;;;;;7.25;1.40;;;;;;;;;;5052352;28;20111;-51
2022/06/18 14:04:17;;;;;;;6.50;1.63;;;;;;;;;;5053350;28;20114;-50
2022/06/18 14:06:52;;;;;;;5.78;1.63;;;;;;;;;;5052593;28;20033;-51
2022/06/18 14:09:22;;;;;;;5.15;1.45;;;;;;;;;;5053282;28;20021;-50
2022/06/18 14:12:14;;;;;;;4.90;1.60;;;;;;;;;;5051933;28;20043;-50
2022/06/18 14:14:43;;;;;;;6.53;1.40;;;;;;;;;;5049869;28;20040;-49
2022/06/18 14:17:09;;;;;;;3.72;1.20;;;;;;;;;;5053083;28;20029;-48
2022/06/18 14:19:38;;;;;;;3.33;1.40;;;;;;;;;;5052641;28;20116;-49
2022/06/18 14:22:18;;;;;;;5.22;1.13;;;;;;;;;;5052079;28;20048;-53
2022/06/18 14:24:47;;;;;;;5.05;1.33;;;;;;;;;;5052947;28;20064;-51
2022/06/18 14:27:32;;;;;;;4.68;1.23;;;;;;;;;;5052378;28;20071;-49
2022/06/18 14:30:00;;;;;;;3.28;1.48;;;;;;;;;;5052946;28;20029;-51
2022/06/18 14:32:37;;;;;;;3.65;1.20;;;;;;;;;;5052487;28;20056;-52
2022/06/18 14:35:04;;;;;;;3.15;1.30;;;;;;;;;;5051813;28;20120;-50
2022/06/18 14:37:38;;;;;;;5.43;1.30;;;;;;;;;;5051909;28;20025;-54
2022/06/18 14:40:05;;;;;;;3.85;1.30;;;;;;;;;;5052194;28;20047;-57
2022/06/18 14:42:52;;;;;;;6.63;1.33;;;;;;;;;;5051898;28;20378;-48
2022/06/18 14:45:22;;;;;;;6.53;1.40;;;;;;;;;;5050362;28;20061;-52
2022/06/18 14:47:55;;;;;;;3.53;1.45;;;;;;;;;;5050609;28;20017;-51
2022/06/18 14:50:38;;;;;;;3.83;1.23;;;;;;;;;;5052575;28;20032;-48
2022/06/18 14:53:14;;;;;;;4.30;1.20;;;;;;;;;;5051823;28;20535;-49
2022/06/18 14:55:59;;;;;;;6.28;1.52;;;;;;;;;;5052467;28;20037;-52
2022/06/18 14:58:42;;;;;;;3.65;1.50;;;;;;;;;;5033688;28;20045;-50
2022/06/18 15:01:12;;;;;;;2.78;1.20;;;;;;;;;;5052378;28;20031;-48
2022/06/18 15:03:42;;;;;;;5.15;1.30;;;;;;;;;;5052465;28;20029;-51
2022/06/18 15:06:10;;;;;;;6.07;1.35;;;;;;;;;;5051504;28;20028;-50
2022/06/18 15:08:42;;;;;;;4.28;1.40;;;;;;;;;;5052304;28;20037;-51
2022/06/18 15:11:12;;;;;;;4.50;1.30;;;;;;;;;;5051568;28;20025;-51
2022/06/18 15:13:42;;;;;;;4.20;1.40;;;;;;;;;;5052374;28;20029;-51
2022/06/18 15:19:18;;;;;;;5.20;1.50;;;;;;;;;;5052268;28;20045;-51
2022/06/18 15:21:49;;;;;;;4.30;1.15;;;;;;;;;;5051277;28;20041;-51